createdAt,value
2023-01-19T00:03:15.956Z,29.10
2023-01-19T00:08:20.214Z,33.05
2023-01-19T00:13:22.896Z,28.50
2023-01-19T00:18:25.871Z,27.30
2023-01-19T00:23:30.099Z,27.77
2023-01-19T00:28:33.008Z,22.38
2023-01-19T00:33:35.864Z,28.90
2023-01-19T00:38:40.034Z,19.38
2023-01-19T00:43:42.866Z,24.20
2023-01-19T00:48:45.665Z,33.90
2023-01-19T00:53:49.716Z,38.47
2023-01-19T00:58:52.538Z,32.22
2023-01-19T01:03:57.063Z,27.00
2023-01-19T01:09:11.740Z,22.77
2023-01-19T01:14:14.821Z,24.23
2023-01-19T01:19:17.939Z,21.92
2023-01-19T01:24:22.421Z,29.73
2023-01-19T01:29:25.333Z,20.73
2023-01-19T01:34:28.460Z,29.60
2023-01-19T01:39:32.987Z,31.58
2023-01-19T01:44:50.760Z,26.13
2023-01-19T01:50:01.289Z,24.42
2023-01-19T01:55:07.978Z,20.27
2023-01-19T02:00:12.500Z,21.42
2023-01-19T02:05:19.389Z,21.70
2023-01-19T02:15:43.725Z,46.67
2023-01-19T02:20:54.305Z,22.27
2023-01-19T02:25:59.466Z,22.90
2023-01-19T02:31:02.300Z,21.40
2023-01-19T02:36:08.071Z,27.23
2023-01-19T02:41:16.199Z,21.13
2023-01-19T02:46:18.931Z,25.15
2023-01-19T02:51:25.130Z,24.63
2023-01-19T02:56:43.408Z,21.70
2023-01-19T03:02:16.529Z,18.73
2023-01-19T03:07:31.550Z,22.70
2023-01-19T03:12:41.842Z,18.25
2023-01-19T03:17:46.240Z,19.73
2023-01-19T03:22:52.592Z,26.02
2023-01-19T03:27:58.772Z,32.97
2023-01-19T03:33:07.260Z,21.05
2023-01-19T03:38:16.645Z,22.05
2023-01-19T03:43:23.192Z,29.17
2023-01-19T03:48:26.481Z,19.73
2023-01-19T03:53:29.306Z,20.33
2023-01-19T03:58:33.502Z,20.60
2023-01-19T04:03:36.291Z,22.98
2023-01-19T04:08:39.074Z,21.52
2023-01-19T04:13:43.335Z,17.98
2023-01-19T04:18:46.254Z,23.55
2023-01-19T04:23:49.852Z,20.88
2023-01-19T04:28:53.994Z,21.15
2023-01-19T04:33:57.183Z,25.58
2023-01-19T04:39:00.032Z,23.95
2023-01-19T04:44:05.004Z,24.02
2023-01-19T04:49:07.920Z,23.98
2023-01-19T04:54:10.778Z,20.73
2023-01-19T04:59:15.247Z,21.30
2023-01-19T05:04:18.129Z,21.33
2023-01-19T05:09:21.207Z,17.55
2023-01-19T05:14:25.457Z,18.63
2023-01-19T05:19:28.151Z,25.02
2023-01-19T05:24:30.935Z,23.02
2023-01-19T05:29:35.397Z,26.15
2023-01-19T05:34:38.112Z,31.98
2023-01-19T05:39:40.862Z,26.38
2023-01-19T05:44:44.918Z,19.92
2023-01-19T05:49:47.636Z,18.60
2023-01-19T05:54:51.344Z,22.42
2023-01-19T05:59:55.475Z,28.38
2023-01-19T06:04:58.375Z,22.67
2023-01-19T06:10:01.186Z,27.35
2023-01-19T06:15:06.118Z,20.38
2023-01-19T06:20:10.418Z,20.52
2023-01-19T06:25:13.247Z,20.25
2023-01-19T06:30:17.991Z,24.75
2023-01-19T06:35:20.863Z,14.38
2023-01-19T06:40:23.591Z,20.10
2023-01-19T06:45:27.747Z,19.58
2023-01-19T06:50:30.765Z,19.67
2023-01-19T06:55:35.654Z,30.77
2023-01-19T07:00:40.327Z,22.08
2023-01-19T07:05:43.124Z,20.98
2023-01-19T07:11:26.141Z,25.02
2023-01-19T07:16:12.458Z,22.42
2023-01-19T07:21:15.486Z,22.60
2023-01-19T07:26:19.816Z,22.13
2023-01-19T07:31:24.449Z,21.23
2023-01-19T07:36:27.260Z,19.33
2023-01-19T07:41:31.428Z,16.98
2023-01-19T07:46:35.762Z,14.07
2023-01-19T07:51:38.473Z,14.10
2023-01-19T07:56:41.439Z,13.43
2023-01-19T08:01:45.768Z,14.20
2023-01-19T08:06:48.656Z,15.68
2023-01-19T08:11:51.534Z,12.88
2023-01-19T08:16:55.672Z,24.40
2023-01-19T08:21:59.012Z,18.55
2023-01-19T08:27:04.058Z,13.40
2023-01-19T08:32:08.489Z,14.63
2023-01-19T08:37:11.513Z,17.38
2023-01-19T08:42:14.288Z,10.75
2023-01-19T08:47:18.430Z,12.85
2023-01-19T08:52:21.269Z,15.52
2023-01-19T08:57:24.106Z,17.73
2023-01-19T09:02:28.349Z,10.80
2023-01-19T09:07:33.848Z,12.30
2023-01-19T09:17:42.682Z,10.82
2023-01-19T09:22:47.491Z,15.65
2023-01-19T09:27:50.645Z,11.30
2023-01-19T09:32:54.780Z,12.30
2023-01-19T09:37:57.553Z,17.67
2023-01-19T09:43:13.322Z,13.00
2023-01-19T09:48:30.023Z,12.98
2023-01-19T09:53:50.479Z,12.75
2023-01-19T09:58:53.979Z,13.40
2023-01-19T10:04:15.953Z,17.52
2023-01-19T10:09:26.312Z,28.45
2023-01-19T10:14:37.604Z,15.80
2023-01-19T10:19:48.549Z,10.82
2023-01-19T10:24:55.786Z,12.80
2023-01-19T10:29:59.504Z,9.18
2023-01-19T10:35:22.484Z,17.20
2023-01-19T10:40:35.458Z,8.55
2023-01-19T10:45:39.061Z,15.43
2023-01-19T10:50:43.738Z,10.13
2023-01-19T10:55:47.397Z,11.40
2023-01-19T11:00:50.286Z,10.60
2023-01-19T11:05:54.580Z,12.43
2023-01-19T11:11:02.370Z,8.27
2023-01-19T11:16:08.129Z,11.73
2023-01-19T11:21:15.540Z,9.65
2023-01-19T11:26:27.363Z,15.57
2023-01-19T11:31:35.662Z,19.70
2023-01-19T11:36:40.115Z,13.07
2023-01-19T11:41:42.966Z,15.55
2023-01-19T11:46:50.058Z,12.88
2023-01-19T11:52:02.854Z,12.13
2023-01-19T11:57:13.645Z,18.48
2023-01-19T12:02:28.385Z,12.38
2023-01-19T12:07:36.604Z,24.40
2023-01-19T12:12:42.468Z,15.10
2023-01-19T12:17:50.901Z,17.10
2023-01-19T12:23:04.551Z,11.40
2023-01-19T12:28:14.165Z,14.65
2023-01-19T12:33:34.361Z,16.05
2023-01-19T12:38:48.829Z,20.17
2023-01-19T12:44:20.380Z,14.10
2023-01-19T12:49:30.645Z,13.55
2023-01-19T12:54:35.069Z,13.50
2023-01-19T12:59:40.625Z,12.85
2023-01-19T13:05:17.119Z,17.40
2023-01-19T13:10:56.845Z,10.18
2023-01-19T13:16:22.362Z,25.45
2023-01-19T13:21:29.806Z,16.70
2023-01-19T13:26:36.978Z,7.70
2023-01-19T13:31:41.678Z,11.35
2023-01-19T13:36:47.877Z,15.70
2023-01-19T13:41:55.492Z,18.17
2023-01-19T13:46:59.811Z,15.50
2023-01-19T13:52:17.522Z,9.50
2023-01-19T13:57:27.039Z,10.68
2023-01-19T14:02:29.860Z,13.73
2023-01-19T14:07:32.933Z,11.25
2023-01-19T14:12:45.578Z,18.25
2023-01-19T14:18:09.869Z,16.70
2023-01-19T14:23:45.438Z,25.23
2023-01-19T14:28:49.569Z,16.73
2023-01-19T14:33:54.002Z,15.80
2023-01-19T14:38:59.471Z,19.38
2023-01-19T14:44:08.484Z,20.30
2023-01-19T14:49:20.105Z,20.05
2023-01-19T14:54:30.766Z,13.35
2023-01-19T14:59:34.902Z,18.20
2023-01-19T15:04:37.611Z,17.05
2023-01-19T15:09:40.503Z,13.93
2023-01-19T15:14:45.235Z,9.65
2023-01-19T15:19:47.967Z,14.63
2023-01-19T15:24:50.887Z,19.75
2023-01-19T15:29:55.274Z,22.63
2023-01-19T15:34:58.038Z,13.88
2023-01-19T15:40:00.835Z,17.98
2023-01-19T15:45:33.691Z,12.95
2023-01-19T15:50:38.689Z,10.95
2023-01-19T15:55:41.479Z,15.68
2023-01-19T16:00:45.621Z,17.40
2023-01-19T16:05:48.775Z,20.85
2023-01-19T16:10:51.619Z,14.68
2023-01-19T16:15:55.654Z,18.05
2023-01-19T16:20:58.611Z,16.25
2023-01-19T16:26:04.804Z,18.40
2023-01-19T16:31:08.976Z,16.17
2023-01-19T16:36:24.541Z,11.40
2023-01-19T16:41:34.215Z,12.82
2023-01-19T16:46:41.256Z,14.20
2023-01-19T16:56:47.251Z,15.35
2023-01-19T17:01:52.190Z,10.75
2023-01-19T17:06:55.385Z,21.40
2023-01-19T17:11:59.154Z,23.55
2023-01-19T17:17:04.252Z,26.05
2023-01-19T17:22:07.438Z,22.48
2023-01-19T17:27:10.430Z,14.75
2023-01-19T17:32:14.609Z,19.88
2023-01-19T17:37:17.366Z,19.80
2023-01-19T17:42:20.134Z,39.28
2023-01-19T17:47:25.944Z,37.15
2023-01-19T17:52:28.809Z,29.33
2023-01-19T17:57:31.668Z,21.95
2023-01-19T18:02:35.876Z,30.33
2023-01-19T18:07:38.747Z,32.00
2023-01-19T18:12:42.691Z,29.08
2023-01-19T18:17:47.594Z,20.05
2023-01-19T18:22:50.315Z,31.33
2023-01-19T18:27:53.259Z,71.03
2023-01-19T18:32:57.429Z,30.77
2023-01-19T18:38:00.378Z,30.15
2023-01-19T18:43:03.339Z,25.25
2023-01-19T18:48:07.723Z,30.40
2023-01-19T18:53:10.558Z,46.25
2023-01-19T18:58:13.617Z,44.88
2023-01-19T19:03:18.372Z,25.25
2023-01-19T19:08:21.285Z,19.40
2023-01-19T19:13:24.312Z,21.67
2023-01-19T19:18:28.619Z,21.02
2023-01-19T19:23:31.432Z,14.02
2023-01-19T19:28:36.811Z,13.88
2023-01-19T19:33:41.655Z,19.58
2023-01-19T19:38:47.134Z,19.30
2023-01-19T19:43:50.275Z,14.73
2023-01-19T19:48:55.521Z,16.80
2023-01-19T19:54:00.031Z,20.83
2023-01-19T19:59:02.925Z,100.50
2023-01-19T20:04:09.220Z,205.45
2023-01-19T20:09:13.988Z,142.27
2023-01-19T20:14:17.199Z,93.22
2023-01-19T20:19:21.346Z,59.67
2023-01-19T20:24:24.130Z,108.35
2023-01-19T20:29:26.981Z,77.88
2023-01-19T20:34:33.874Z,37.45
2023-01-19T20:39:37.126Z,39.65
2023-01-19T20:44:40.660Z,57.25
2023-01-19T20:49:44.896Z,81.90
2023-01-19T20:54:47.663Z,42.03
2023-01-19T20:59:50.453Z,28.27
2023-01-19T21:04:54.844Z,27.30
2023-01-19T21:09:57.596Z,30.50
2023-01-19T21:15:00.409Z,41.70
2023-01-19T21:20:05.321Z,38.17
2023-01-19T21:25:08.571Z,29.85
2023-01-19T21:30:12.214Z,34.13
2023-01-19T21:35:16.925Z,49.72
2023-01-19T21:40:20.183Z,50.80
2023-01-19T21:45:23.734Z,49.10
2023-01-19T21:50:27.953Z,57.47
2023-01-19T21:55:31.324Z,46.78
2023-01-19T22:00:34.485Z,50.28
2023-01-19T22:05:38.692Z,29.00
2023-01-19T22:10:41.549Z,28.70
2023-01-19T22:15:44.343Z,38.63
2023-01-19T22:20:48.420Z,32.85
2023-01-19T22:25:51.232Z,22.05
2023-01-19T22:30:54.108Z,29.73
2023-01-19T22:36:10.691Z,23.90
2023-01-19T22:41:15.149Z,25.23
2023-01-19T22:46:19.749Z,23.65
2023-01-19T22:51:25.591Z,26.45
2023-01-19T22:56:30.062Z,27.60
2023-01-19T23:01:34.822Z,25.83
2023-01-19T23:06:39.358Z,31.60
2023-01-19T23:11:43.809Z,25.42
2023-01-19T23:16:47.739Z,22.40
2023-01-19T23:21:53.370Z,26.52
2023-01-19T23:26:56.087Z,27.50
2023-01-19T23:31:59.060Z,27.38
2023-01-19T23:37:03.144Z,32.85
2023-01-19T23:42:08.167Z,29.90
2023-01-19T23:47:10.926Z,25.58
2023-01-19T23:52:14.979Z,38.83
2023-01-19T23:57:17.742Z,31.88
